Time;durP1;ratioP1;P1;durP2;ratioP2;P2;SDS_P1;SDS_P2;PMS_P1;PMS_P2;Temp;Humidity;BMP_temperature;BMP_pressure;BME280_temperature;BME280_humidity;BME280_pressure;Samples;Min_cycle;Max_cycle;Signal;HPM_P1;HPM_P2
2022/12/12 00:00:45;;;;;;;5.53;5.03;;;19.10;36.50;;;;;;4985686;28;20223;-59
2022/12/12 00:03:11;;;;;;;5.37;5.07;;;19.10;36.50;;;;;;4980311;28;20232;-59
2022/12/12 00:05:37;;;;;;;5.40;4.90;;;19.10;36.50;;;;;;4976732;28;20519;-59
2022/12/12 00:08:03;;;;;;;4.70;4.40;;;19.10;36.50;;;;;;4982473;28;20228;-58
2022/12/12 00:10:29;;;;;;;5.63;5.27;;;19.10;36.50;;;;;;4980769;28;20454;-58
2022/12/12 00:12:54;;;;;;;4.60;4.30;;;19.10;36.50;;;;;;4987703;28;20260;-59
2022/12/12 00:15:20;;;;;;;4.70;4.40;;;19.10;36.50;;;;;;4978831;28;20212;-58
2022/12/12 00:17:49;;;;;;;4.93;4.60;;;19.10;36.50;;;;;;4978792;28;20235;-59
2022/12/12 00:20:14;;;;;;;5.40;5.00;;;19.10;36.40;;;;;;4977692;28;20657;-59
2022/12/12 00:22:40;;;;;;;5.10;4.70;;;19.10;36.50;;;;;;4980628;28;20456;-58
2022/12/12 00:25:06;;;;;;;5.57;5.17;;;19.10;36.50;;;;;;4990742;28;20311;-59
2022/12/12 00:27:32;;;;;;;5.40;5.00;;;19.10;36.50;;;;;;4991573;28;20261;-59
2022/12/12 00:29:58;;;;;;;4.97;4.47;;;19.10;36.50;;;;;;4986131;28;20216;-59
2022/12/12 00:32:24;;;;;;;5.40;5.00;;;19.10;36.50;;;;;;4996732;28;20432;-59
2022/12/12 00:34:49;;;;;;;6.13;5.60;;;19.10;36.50;;;;;;4990796;28;20614;-58
2022/12/12 00:37:15;;;;;;;5.23;4.90;;;19.10;36.40;;;;;;4987964;28;20318;-59
2022/12/12 00:39:41;;;;;;;5.50;5.10;;;19.10;36.60;;;;;;4981593;28;20661;-59
2022/12/12 00:42:06;;;;;;;5.07;4.67;;;19.10;36.50;;;;;;4979090;28;20300;-60
2022/12/12 00:44:32;;;;;;;5.77;5.27;;;19.10;36.50;;;;;;4977289;28;20216;-58
2022/12/12 00:46:57;;;;;;;4.93;4.63;;;19.10;36.50;;;;;;4995640;28;20290;-58
2022/12/12 00:49:23;;;;;;;5.20;4.80;;;19.10;36.50;;;;;;4979990;28;20227;-58
2022/12/12 00:51:49;;;;;;;4.93;4.63;;;19.10;36.50;;;;;;4984426;28;20228;-59
2022/12/12 00:54:14;;;;;;;5.37;4.97;;;19.10;36.50;;;;;;4977950;28;20243;-58
2022/12/12 00:56:40;;;;;;;5.10;4.70;;;19.10;36.50;;;;;;4987978;28;20239;-58
2022/12/12 00:59:06;;;;;;;5.70;5.27;;;19.10;36.50;;;;;;4984781;28;20253;-59
2022/12/12 01:01:33;;;;;;;4.83;4.53;;;19.10;36.50;;;;;;4983570;28;20220;-59
2022/12/12 01:03:59;;;;;;;5.97;5.53;;;19.10;36.50;;;;;;4984439;28;20251;-59
2022/12/12 01:06:25;;;;;;;5.33;4.87;;;19.10;36.50;;;;;;4981373;28;20435;-59
2022/12/12 01:08:52;;;;;;;4.30;4.00;;;19.10;36.50;;;;;;4978225;28;20462;-58
2022/12/12 01:11:19;;;;;;;5.27;4.93;;;19.10;36.50;;;;;;4981368;28;20574;-59
2022/12/12 01:13:46;;;;;;;4.87;4.57;;;19.10;36.50;;;;;;4978282;28;20549;-59
2022/12/12 01:16:12;;;;;;;5.27;4.83;;;19.10;36.50;;;;;;4978732;28;20427;-59
2022/12/12 01:18:38;;;;;;;5.27;4.90;;;19.10;36.50;;;;;;4982424;28;20440;-58
2022/12/12 01:21:12;;;;;;;4.97;4.67;;;19.10;36.40;;;;;;4976961;28;20336;-58
2022/12/12 01:23:37;;;;;;;5.50;5.10;;;19.10;36.50;;;;;;4977053;28;20487;-58
2022/12/12 01:26:15;;;;;;;5.50;5.20;;;19.10;36.40;;;;;;4986239;28;20457;-58
2022/12/12 01:28:41;;;;;;;5.63;5.23;;;19.10;36.40;;;;;;4998073;28;20212;-59
2022/12/12 01:31:07;;;;;;;4.77;4.47;;;19.10;36.50;;;;;;4997387;28;20951;-58
2022/12/12 01:33:33;;;;;;;4.90;4.60;;;19.10;36.40;;;;;;5000003;28;20750;-58
2022/12/12 01:35:58;;;;;;;5.23;4.87;;;19.10;36.60;;;;;;4999235;28;20730;-58
2022/12/12 01:38:24;;;;;;;4.50;4.30;;;19.10;36.50;;;;;;4999945;28;20208;-59
2022/12/12 01:40:51;;;;;;;4.63;4.30;;;19.10;36.40;;;;;;4999342;28;20677;-59
2022/12/12 01:43:18;;;;;;;4.80;4.50;;;19.10;36.40;;;;;;4999221;28;20228;-58
2022/12/12 01:46:01;;;;;;;5.10;4.60;;;19.10;36.50;;;;;;4984589;28;20499;-58
2022/12/12 01:48:34;;;;;;;4.80;4.50;;;19.10;36.50;;;;;;4980753;28;20481;-58
2022/12/12 01:51:03;;;;;;;4.70;4.40;;;19.10;36.40;;;;;;4980343;28;20461;-58
2022/12/12 01:53:30;;;;;;;4.50;4.20;;;19.10;36.40;;;;;;4983184;28;20417;-58
2022/12/12 01:55:57;;;;;;;4.57;4.33;;;19.10;36.50;;;;;;4983042;28;20429;-59
2022/12/12 01:58:24;;;;;;;5.03;4.67;;;19.10;36.40;;;;;;4982490;28;20525;-58
2022/12/12 02:00:49;;;;;;;5.00;4.70;;;19.10;36.40;;;;;;4997101;28;20431;-58
2022/12/12 02:03:15;;;;;;;4.80;4.50;;;19.10;36.50;;;;;;5000133;28;20452;-59
2022/12/12 02:05:56;;;;;;;5.00;4.70;;;19.10;36.40;;;;;;4998455;28;20219;-57
2022/12/12 02:08:22;;;;;;;4.50;4.20;;;19.10;36.40;;;;;;4992815;28;20219;-58
2022/12/12 02:10:48;;;;;;;5.73;5.30;;;19.10;36.50;;;;;;4996574;28;20523;-59
2022/12/12 02:13:19;;;;;;;4.87;4.50;;;19.10;36.40;;;;;;4995610;28;20941;-59
2022/12/12 02:16:14;;;;;;;4.53;4.20;;;19.10;36.40;;;;;;4983935;28;20224;-58
2022/12/12 02:19:19;;;;;;;4.80;4.50;;;19.10;36.40;;;;;;4976476;28;20444;-59
2022/12/12 02:22:05;;;;;;;4.60;4.30;;;19.10;36.40;;;;;;4975899;28;20454;-59
2022/12/12 02:25:04;;;;;;;4.20;3.90;;;19.10;36.40;;;;;;4995232;28;20475;-58
2022/12/12 02:27:54;;;;;;;4.90;4.50;;;19.10;36.50;;;;;;4977943;28;20486;-59
2022/12/12 02:30:29;;;;;;;4.80;4.50;;;19.10;36.40;;;;;;4983149;28;20447;-58
2022/12/12 02:33:12;;;;;;;4.93;4.63;;;19.10;36.40;;;;;;4984773;28;20497;-60
2022/12/12 02:35:55;;;;;;;4.40;4.20;;;19.10;36.40;;;;;;4974499;28;20424;-58
2022/12/12 02:38:39;;;;;;;4.40;4.20;;;19.10;36.40;;;;;;4980654;28;20465;-59
2022/12/12 02:41:24;;;;;;;4.30;4.10;;;19.10;36.40;;;;;;4992780;28;20578;-59
2022/12/12 02:44:16;;;;;;;4.90;4.50;;;19.10;37.20;;;;;;5000953;28;20422;-58
2022/12/12 02:47:17;;;;;;;4.40;4.10;;;19.10;36.40;;;;;;4992446;28;20428;-58
2022/12/12 02:50:02;;;;;;;4.57;4.27;;;19.10;36.40;;;;;;4989110;28;20472;-59
2022/12/12 02:52:28;;;;;;;4.40;4.20;;;19.00;36.30;;;;;;4978150;28;20451;-59
2022/12/12 02:54:54;;;;;;;4.70;4.40;;;19.00;36.30;;;;;;4992064;28;20424;-59
2022/12/12 02:57:22;;;;;;;4.43;4.13;;;19.00;36.30;;;;;;4984239;28;20458;-58
2022/12/12 03:00:10;;;;;;;4.73;4.43;;;19.00;36.30;;;;;;4979175;28;20231;-59
2022/12/12 03:02:47;;;;;;;4.17;3.97;;;19.00;36.30;;;;;;5000012;28;20428;-59
2022/12/12 03:08:30;;;;;;;3.63;3.40;;;19.00;36.30;;;;;;4995665;28;20467;-59
2022/12/12 03:11:04;;;;;;;4.10;3.80;;;19.00;36.30;;;;;;4996128;28;20432;-59
2022/12/12 03:13:43;;;;;;;4.40;4.10;;;19.00;36.30;;;;;;4998476;28;20534;-58
2022/12/12 03:16:29;;;;;;;4.97;4.60;;;19.00;36.30;;;;;;5001235;28;20530;-58
2022/12/12 03:19:11;;;;;;;4.80;4.40;;;19.10;36.40;;;;;;4985363;28;20546;-60
2022/12/12 03:21:47;;;;;;;5.00;4.70;;;19.10;36.30;;;;;;4980946;28;20471;-58
2022/12/12 03:24:42;;;;;;;4.23;3.93;;;19.00;36.30;;;;;;4979878;28;20440;-59
2022/12/12 03:27:17;;;;;;;4.40;4.17;;;19.10;36.40;;;;;;4969410;28;21003;-59
2022/12/12 03:29:51;;;;;;;5.00;4.60;;;19.00;36.20;;;;;;4986839;28;20468;-59
2022/12/12 03:32:47;;;;;;;4.80;4.50;;;19.00;36.30;;;;;;4996597;28;20447;-59
2022/12/12 03:35:21;;;;;;;4.10;3.80;;;19.00;36.20;;;;;;4981189;28;20521;-59
2022/12/12 03:38:00;;;;;;;4.50;4.20;;;19.00;36.30;;;;;;4982885;28;20425;-58
2022/12/12 03:40:50;;;;;;;4.33;4.10;;;19.00;37.10;;;;;;4984251;28;20424;-59
2022/12/12 03:43:21;;;;;;;4.40;4.10;;;19.00;36.20;;;;;;4976408;28;20539;-59
2022/12/12 03:46:13;;;;;;;4.00;3.80;;;19.00;36.20;;;;;;4985501;28;20619;-58
2022/12/12 03:49:00;;;;;;;4.70;4.40;;;19.00;37.00;;;;;;4980306;28;20439;-58
2022/12/12 03:51:31;;;;;;;3.80;3.60;;;19.00;36.20;;;;;;4978641;28;20547;-59
2022/12/12 03:54:21;;;;;;;4.90;4.60;;;19.00;36.30;;;;;;4978688;28;20516;-59
2022/12/12 03:56:59;;;;;;;4.30;4.00;;;19.00;36.20;;;;;;4977377;28;20450;-59
2022/12/12 03:59:43;;;;;;;4.43;4.13;;;19.00;36.20;;;;;;4997812;28;20448;-59
2022/12/12 04:02:24;;;;;;;4.30;4.00;;;19.00;36.20;;;;;;4997763;28;20473;-59
2022/12/12 04:05:07;;;;;;;8.30;4.40;;;19.00;36.20;;;;;;4999384;28;20419;-58
2022/12/12 04:07:42;;;;;;;4.80;4.50;;;19.00;36.20;;;;;;4993492;28;20567;-58
2022/12/12 04:13:22;;;;;;;4.03;3.83;;;19.00;36.20;;;;;;5002716;28;20544;-59
2022/12/12 04:16:11;;;;;;;4.20;3.93;;;19.00;36.20;;;;;;5001463;28;20439;-58
2022/12/12 04:18:51;;;;;;;5.10;4.80;;;19.00;36.20;;;;;;5002444;28;20549;-60
2022/12/12 04:24:16;;;;;;;4.20;3.97;;;19.00;36.10;;;;;;4999593;28;20590;-58
2022/12/12 04:27:03;;;;;;;4.10;3.80;;;19.00;36.20;;;;;;4999553;28;20435;-58
2022/12/12 04:29:47;;;;;;;5.00;4.67;;;19.00;36.20;;;;;;4995697;28;20914;-59
2022/12/12 04:32:23;;;;;;;4.17;3.97;;;19.00;36.20;;;;;;4986078;28;20957;-59
2022/12/12 04:35:04;;;;;;;4.70;4.50;;;19.00;36.30;;;;;;5004412;28;20449;-59
2022/12/12 04:37:37;;;;;;;4.57;4.30;;;19.00;36.20;;;;;;5001874;28;20526;-59
2022/12/12 04:40:07;;;;;;;4.73;4.50;;;19.00;36.20;;;;;;4996052;28;20420;-59
2022/12/12 04:42:37;;;;;;;4.27;3.97;;;19.10;36.30;;;;;;4997868;28;20483;-58
2022/12/12 04:45:10;;;;;;;4.10;3.90;;;19.00;36.10;;;;;;4996314;28;20441;-59
2022/12/12 04:47:37;;;;;;;4.43;4.13;;;19.10;36.30;;;;;;4998574;28;20462;-59
2022/12/12 04:50:05;;;;;;;4.30;4.07;;;19.00;36.10;;;;;;5000159;28;20425;-59
2022/12/12 04:52:33;;;;;;;4.33;4.10;;;19.10;36.20;;;;;;4999491;28;20555;-58
2022/12/12 04:55:11;;;;;;;5.10;4.80;;;19.10;36.20;;;;;;4991375;28;20435;-59
2022/12/12 04:57:42;;;;;;;4.30;4.10;;;19.10;36.20;;;;;;4999500;28;20435;-59
2022/12/12 05:00:11;;;;;;;4.57;4.27;;;19.10;36.20;;;;;;5000943;28;20426;-59
2022/12/12 05:02:44;;;;;;;4.97;4.67;;;19.10;36.10;;;;;;4994060;28;20487;-59
2022/12/12 05:05:25;;;;;;;4.00;3.80;;;19.10;36.10;;;;;;4996419;28;20464;-59
2022/12/12 05:08:10;;;;;;;5.33;4.93;;;19.10;36.10;;;;;;4994212;28;20436;-59
2022/12/12 05:10:45;;;;;;;4.30;4.00;;;19.10;36.10;;;;;;4998475;28;20822;-59
2022/12/12 05:13:19;;;;;;;3.67;3.43;;;19.10;36.10;;;;;;4997065;28;20448;-59
2022/12/12 05:15:47;;;;;;;4.67;4.37;;;19.10;36.10;;;;;;4997479;28;21726;-59
2022/12/12 05:18:13;;;;;;;4.57;4.37;;;19.20;36.00;;;;;;4995566;28;20432;-59
2022/12/12 05:20:38;;;;;;;4.40;3.87;;;19.20;36.00;;;;;;4997234;28;20470;-59
2022/12/12 05:23:04;;;;;;;4.43;4.13;;;19.20;35.90;;;;;;4981195;28;20580;-59
2022/12/12 05:25:29;;;;;;;4.07;3.87;;;19.20;35.90;;;;;;4981167;28;20355;-59
2022/12/12 05:27:55;;;;;;;4.17;3.87;;;19.20;35.90;;;;;;4979446;28;20215;-59
2022/12/12 05:30:21;;;;;;;4.87;4.57;;;19.30;36.80;;;;;;4988130;28;20688;-59
2022/12/12 05:32:47;;;;;;;4.27;4.07;;;19.30;35.90;;;;;;4975331;28;20466;-59
2022/12/12 05:35:12;;;;;;;4.33;4.13;;;19.30;35.90;;;;;;4972703;28;20235;-59
2022/12/12 05:37:39;;;;;;;3.97;3.77;;;19.30;35.90;;;;;;4979911;28;20234;-58
2022/12/12 05:40:05;;;;;;;4.00;3.80;;;19.30;35.80;;;;;;4985236;28;21535;-58
2022/12/12 05:42:31;;;;;;;3.80;3.60;;;19.30;35.90;;;;;;4997199;28;20424;-60
2022/12/12 05:44:56;;;;;;;4.40;4.20;;;19.30;35.90;;;;;;4996712;28;20435;-59
2022/12/12 05:47:22;;;;;;;4.20;3.90;;;19.30;35.90;;;;;;4995086;28;20215;-59
2022/12/12 05:49:47;;;;;;;4.50;4.20;;;19.30;35.90;;;;;;5000944;28;20242;-59
2022/12/12 05:52:13;;;;;;;4.33;4.03;;;19.30;35.90;;;;;;4989042;28;22831;-60
2022/12/12 05:54:42;;;;;;;4.10;3.80;;;19.30;35.80;;;;;;4993594;28;20219;-59
2022/12/12 05:57:08;;;;;;;3.70;3.50;;;19.30;35.90;;;;;;4997340;28;20306;-59
2022/12/12 05:59:33;;;;;;;4.50;4.20;;;19.30;35.90;;;;;;4997099;28;20448;-59
2022/12/12 06:01:59;;;;;;;4.33;4.10;;;19.30;35.90;;;;;;4993625;28;21467;-60
2022/12/12 06:04:24;;;;;;;3.70;3.50;;;19.30;35.90;;;;;;4994889;28;20226;-59
2022/12/12 06:06:50;;;;;;;3.70;3.50;;;19.30;36.70;;;;;;4991485;28;20227;-59
2022/12/12 06:09:16;;;;;;;3.63;3.43;;;19.30;35.80;;;;;;4993944;28;20582;-59
2022/12/12 06:11:42;;;;;;;4.20;4.00;;;19.30;35.90;;;;;;4992536;28;20246;-59
2022/12/12 06:14:07;;;;;;;4.20;3.90;;;19.30;36.60;;;;;;4991913;28;20314;-60
2022/12/12 06:16:34;;;;;;;4.20;3.90;;;19.30;35.90;;;;;;4988433;28;20843;-60
2022/12/12 06:18:59;;;;;;;4.77;4.47;;;19.30;35.90;;;;;;4983191;28;20216;-60
2022/12/12 06:21:25;;;;;;;3.80;3.60;;;19.30;35.80;;;;;;4985350;28;20527;-60
2022/12/12 06:23:50;;;;;;;4.27;4.07;;;19.30;35.80;;;;;;4994568;28;20686;-60
2022/12/12 06:26:18;;;;;;;3.60;3.40;;;19.30;35.90;;;;;;4996410;28;20762;-60
2022/12/12 06:28:43;;;;;;;4.20;3.90;;;19.30;35.80;;;;;;4983219;28;20573;-59
2022/12/12 06:31:10;;;;;;;4.60;4.40;;;19.30;35.80;;;;;;4972780;28;20480;-59
2022/12/12 06:33:37;;;;;;;3.30;3.10;;;19.30;35.80;;;;;;4988529;28;20214;-62
2022/12/12 06:36:10;;;;;;;4.40;4.10;;;19.30;35.80;;;;;;4994803;28;20464;-60
2022/12/12 06:38:37;;;;;;;3.47;3.27;;;19.30;35.90;;;;;;4993512;28;20501;-60
2022/12/12 06:41:07;;;;;;;4.00;3.80;;;19.30;35.80;;;;;;4998099;28;20980;-61
2022/12/12 06:43:33;;;;;;;3.40;3.20;;;19.30;36.70;;;;;;4980481;28;20776;-61
2022/12/12 06:46:03;;;;;;;4.13;3.83;;;19.30;35.90;;;;;;4982149;28;20451;-60
2022/12/12 06:48:31;;;;;;;4.50;4.20;;;19.30;35.90;;;;;;5000595;28;20235;-61
2022/12/12 06:50:57;;;;;;;3.73;3.53;;;19.30;35.90;;;;;;4995934;28;20436;-60
2022/12/12 06:53:22;;;;;;;4.10;3.80;;;19.30;35.90;;;;;;4996965;28;20458;-60
2022/12/12 06:55:48;;;;;;;3.80;3.50;;;19.30;35.90;;;;;;4998541;28;20423;-61
2022/12/12 06:58:13;;;;;;;3.60;3.40;;;19.30;35.90;;;;;;5000343;28;20318;-61
2022/12/12 07:00:40;;;;;;;4.13;3.87;;;19.30;35.90;;;;;;4997976;28;20250;-61
2022/12/12 07:03:06;;;;;;;3.90;3.60;;;19.30;36.00;;;;;;4979524;28;20259;-61
2022/12/12 07:05:32;;;;;;;3.97;3.67;;;19.30;36.00;;;;;;4994766;28;20518;-61
2022/12/12 07:08:01;;;;;;;4.20;3.90;;;19.30;36.00;;;;;;4994622;28;20454;-56
2022/12/12 07:10:30;;;;;;;4.73;4.40;;;19.30;35.90;;;;;;5001609;28;20780;-58
2022/12/12 07:12:55;;;;;;;3.73;3.53;;;19.30;35.90;;;;;;4978326;28;20832;-59
2022/12/12 07:15:22;;;;;;;5.53;3.53;;;19.30;36.00;;;;;;4983541;28;20482;-59
2022/12/12 07:17:52;;;;;;;3.83;3.63;;;19.30;36.00;;;;;;4974496;28;20954;-59
2022/12/12 07:20:17;;;;;;;4.73;4.33;;;19.30;36.00;;;;;;4979671;28;20227;-59
2022/12/12 07:22:43;;;;;;;4.20;4.00;;;19.30;36.00;;;;;;4974881;28;20435;-61
2022/12/12 07:25:08;;;;;;;4.00;3.70;;;19.30;36.00;;;;;;4972744;28;20675;-61
2022/12/12 07:27:34;;;;;;;5.13;4.17;;;19.20;35.90;;;;;;4968848;28;20213;-60
2022/12/12 07:29:59;;;;;;;4.13;3.83;;;19.30;36.00;;;;;;4975407;28;20204;-61
2022/12/12 07:32:25;;;;;;;4.43;4.23;;;19.30;36.00;;;;;;4984470;28;20234;-61
2022/12/12 07:34:51;;;;;;;4.70;4.30;;;19.30;36.00;;;;;;4981425;28;21430;-60
2022/12/12 07:37:16;;;;;;;4.33;4.10;;;19.30;36.00;;;;;;4983521;28;20216;-60
2022/12/12 07:39:41;;;;;;;4.60;4.40;;;19.30;35.90;;;;;;4982351;28;20235;-60
2022/12/12 07:42:07;;;;;;;4.57;4.23;;;19.30;36.00;;;;;;4990204;28;20566;-61
2022/12/12 07:44:32;;;;;;;4.10;3.80;;;19.20;35.80;;;;;;4984978;28;20307;-60
2022/12/12 07:46:59;;;;;;;3.67;3.47;;;19.30;35.90;;;;;;4984797;28;20223;-60
2022/12/12 07:49:26;;;;;;;4.23;3.93;;;19.30;35.90;;;;;;4994038;28;20699;-60
2022/12/12 07:51:52;;;;;;;3.97;3.67;;;19.30;35.90;;;;;;4985950;28;20447;-60
2022/12/12 07:54:17;;;;;;;4.00;3.80;;;19.30;35.90;;;;;;4982898;28;20441;-61
2022/12/12 07:56:43;;;;;;;4.37;4.07;;;19.30;35.80;;;;;;4982955;28;20294;-60
2022/12/12 07:59:08;;;;;;;3.33;3.13;;;19.30;35.90;;;;;;4987328;28;20616;-60
2022/12/12 08:01:34;;;;;;;4.60;4.30;;;19.30;35.90;;;;;;4985552;28;20231;-60
2022/12/12 08:04:00;;;;;;;3.43;3.23;;;19.30;35.90;;;;;;4998014;28;20215;-60
2022/12/12 08:06:26;;;;;;;4.77;3.73;;;19.30;35.90;;;;;;4995697;28;20911;-60
2022/12/12 08:08:52;;;;;;;3.77;3.57;;;19.30;35.80;;;;;;5001795;28;20231;-60
2022/12/12 08:11:21;;;;;;;3.93;3.60;;;19.30;35.80;;;;;;5002987;28;20322;-60
2022/12/12 08:13:47;;;;;;;3.57;3.37;;;19.20;35.70;;;;;;5000681;28;20427;-61
2022/12/12 08:16:18;;;;;;;5.80;3.60;;;19.20;35.70;;;;;;5003644;28;20415;-60
2022/12/12 08:18:44;;;;;;;3.20;3.00;;;19.20;35.70;;;;;;5001963;28;20455;-60
2022/12/12 08:21:11;;;;;;;3.30;3.10;;;19.20;35.70;;;;;;4998679;28;20542;-60
2022/12/12 08:23:38;;;;;;;4.17;3.87;;;19.30;35.80;;;;;;5003321;28;20488;-60
2022/12/12 08:26:07;;;;;;;3.37;3.10;;;19.30;35.80;;;;;;4999841;28;20839;-60
2022/12/12 08:28:33;;;;;;;3.97;3.73;;;19.20;35.70;;;;;;5001596;28;20454;-60
2022/12/12 08:30:59;;;;;;;3.90;3.70;;;19.30;35.80;;;;;;4998173;28;20563;-60
2022/12/12 08:33:24;;;;;;;3.60;3.40;;;19.30;35.80;;;;;;4999101;28;20449;-60
2022/12/12 08:35:50;;;;;;;3.97;3.67;;;19.30;35.80;;;;;;4990231;28;20231;-60
2022/12/12 08:38:15;;;;;;;4.17;3.87;;;19.30;35.80;;;;;;4984990;28;20568;-60
2022/12/12 08:40:41;;;;;;;4.00;3.70;;;19.20;35.70;;;;;;4981000;28;20223;-60
2022/12/12 08:43:08;;;;;;;3.30;3.10;;;19.20;35.70;;;;;;4985400;28;20218;-60
2022/12/12 08:45:33;;;;;;;4.03;3.83;;;19.20;35.60;;;;;;4986617;28;20219;-60
2022/12/12 08:47:59;;;;;;;3.30;3.10;;;19.20;35.70;;;;;;4980179;28;20790;-60
2022/12/12 08:50:25;;;;;;;3.40;3.20;;;19.30;35.80;;;;;;4998608;28;20208;-60
2022/12/12 08:52:50;;;;;;;3.33;3.13;;;19.30;35.70;;;;;;4999270;28;20255;-60
2022/12/12 08:55:16;;;;;;;3.60;3.40;;;19.20;35.60;;;;;;5004629;28;20538;-60
2022/12/12 08:57:41;;;;;;;3.70;3.50;;;19.20;35.60;;;;;;4996409;28;20223;-60
2022/12/12 09:00:07;;;;;;;3.83;3.63;;;19.30;35.70;;;;;;5001532;28;20333;-60
2022/12/12 09:02:33;;;;;;;3.33;3.13;;;19.20;35.60;;;;;;4998819;28;20238;-61
2022/12/12 09:04:58;;;;;;;3.27;3.07;;;19.30;35.80;;;;;;4998791;28;20448;-61
2022/12/12 09:07:24;;;;;;;3.50;3.30;;;19.30;35.80;;;;;;4994951;28;20220;-61
2022/12/12 09:09:49;;;;;;;3.67;3.43;;;19.20;35.60;;;;;;4998352;28;20229;-61
2022/12/12 09:12:15;;;;;;;3.47;3.17;;;19.20;35.60;;;;;;4997183;28;20242;-61
2022/12/12 09:14:41;;;;;;;3.40;3.20;;;19.20;35.60;;;;;;4999151;28;21113;-61
2022/12/12 09:17:06;;;;;;;4.27;3.97;;;19.20;35.60;;;;;;4999819;28;20262;-60
2022/12/12 09:19:32;;;;;;;3.77;3.47;;;19.30;35.70;;;;;;4998421;28;20277;-61
2022/12/12 09:21:57;;;;;;;3.77;3.20;;;19.20;35.60;;;;;;5002402;28;20577;-61
2022/12/12 09:24:24;;;;;;;3.67;3.37;;;19.20;35.60;;;;;;4996757;28;20257;-61
2022/12/12 09:26:50;;;;;;;3.03;2.83;;;19.30;35.80;;;;;;4996775;28;20302;-61
2022/12/12 09:29:15;;;;;;;3.70;3.43;;;19.20;35.60;;;;;;4985069;28;20456;-60
2022/12/12 09:31:41;;;;;;;2.93;2.73;;;19.20;35.60;;;;;;4984301;28;20227;-60
2022/12/12 09:34:06;;;;;;;3.23;3.03;;;19.30;35.70;;;;;;4983337;28;20235;-61
2022/12/12 09:36:32;;;;;;;3.50;3.30;;;19.30;35.70;;;;;;4985846;28;20223;-61
2022/12/12 09:38:57;;;;;;;3.13;2.93;;;19.20;35.60;;;;;;4973227;28;20238;-61
2022/12/12 09:41:29;;;;;;;3.13;2.93;;;19.30;35.70;;;;;;4979605;28;20224;-61
2022/12/12 09:44:17;;;;;;;3.57;3.37;;;19.30;35.70;;;;;;5000470;28;20208;-61
2022/12/12 09:46:49;;;;;;;4.23;3.83;;;19.30;35.70;;;;;;4997290;28;20478;-60
2022/12/12 09:49:35;;;;;;;3.40;3.20;;;19.30;35.70;;;;;;4996697;28;21148;-61
2022/12/12 09:52:01;;;;;;;3.37;3.17;;;19.30;35.70;;;;;;4980869;28;20528;-60
2022/12/12 09:54:27;;;;;;;3.13;2.83;;;19.20;35.60;;;;;;4983216;28;20424;-61
2022/12/12 09:57:05;;;;;;;3.10;2.90;;;19.20;35.60;;;;;;4997984;28;20427;-61
2022/12/12 09:59:43;;;;;;;3.23;3.03;;;19.30;35.70;;;;;;4983421;28;20211;-60
2022/12/12 10:02:24;;;;;;;3.43;3.23;;;19.30;35.70;;;;;;4979719;28;20474;-61
2022/12/12 10:04:59;;;;;;;3.50;3.30;;;19.30;35.70;;;;;;4983744;28;20937;-61
2022/12/12 10:07:27;;;;;;;3.30;3.07;;;19.30;35.70;;;;;;4986822;28;20495;-60
2022/12/12 10:10:05;;;;;;;3.20;3.00;;;19.20;35.60;;;;;;4979890;28;20429;-61
2022/12/12 10:12:31;;;;;;;3.03;2.83;;;19.30;35.70;;;;;;4980182;28;20523;-61
2022/12/12 10:15:18;;;;;;;3.90;3.53;;;19.30;35.60;;;;;;4977135;28;20465;-61
2022/12/12 10:17:45;;;;;;;2.93;2.73;;;19.30;35.70;;;;;;4981441;28;20440;-61
2022/12/12 10:20:21;;;;;;;2.67;2.57;;;19.30;35.60;;;;;;4988836;28;20433;-60
2022/12/12 10:23:12;;;;;;;3.03;2.83;;;19.30;36.00;;;;;;5000075;28;20499;-60
2022/12/12 10:25:53;;;;;;;3.13;2.93;;;19.30;35.70;;;;;;4992942;28;20540;-60
2022/12/12 10:28:22;;;;;;;3.37;3.17;;;19.30;35.60;;;;;;4997764;28;20472;-60
2022/12/12 10:31:21;;;;;;;2.97;2.83;;;19.30;35.60;;;;;;4997368;28;20476;-60
2022/12/12 10:34:31;;;;;;;3.20;3.00;;;19.30;35.60;;;;;;4982356;28;21052;-60
2022/12/12 10:37:05;;;;;;;2.97;2.77;;;19.30;35.60;;;;;;4988865;28;20509;-61
2022/12/12 10:39:39;;;;;;;3.23;3.03;;;19.30;35.60;;;;;;4987354;28;20497;-60
2022/12/12 10:42:38;;;;;;;2.50;2.40;;;19.30;35.60;;;;;;4983209;28;20463;-60
2022/12/12 10:45:10;;;;;;;2.30;2.20;;;19.30;36.30;;;;;;4988343;28;20431;-61
2022/12/12 10:47:35;;;;;;;3.37;3.17;;;19.30;35.60;;;;;;4993913;28;20475;-60
2022/12/12 10:50:07;;;;;;;3.00;2.80;;;19.30;35.60;;;;;;4996243;28;20601;-60
2022/12/12 10:52:32;;;;;;;3.10;2.80;;;19.30;35.60;;;;;;4994221;28;20901;-61
2022/12/12 10:54:59;;;;;;;2.63;2.53;;;19.30;35.50;;;;;;5004628;28;20439;-60
2022/12/12 10:57:26;;;;;;;2.90;2.70;;;19.30;35.50;;;;;;5003872;28;20235;-61
2022/12/12 10:59:56;;;;;;;3.37;3.17;;;19.30;35.60;;;;;;5001463;28;20835;-60
2022/12/12 11:02:36;;;;;;;3.27;3.07;;;19.30;35.50;;;;;;5000406;28;20824;-60
2022/12/12 11:05:14;;;;;;;3.23;3.03;;;19.30;35.50;;;;;;4974711;28;20443;-61
2022/12/12 11:07:45;;;;;;;2.93;2.73;;;19.30;35.50;;;;;;4975626;28;20432;-60
2022/12/12 11:10:23;;;;;;;2.37;2.27;;;19.30;35.50;;;;;;4978564;28;20428;-60
2022/12/12 11:12:57;;;;;;;2.97;2.87;;;19.30;35.50;;;;;;4986641;28;20852;-60
2022/12/12 11:15:50;;;;;;;3.00;2.80;;;19.30;35.50;;;;;;4983090;28;20972;-60
2022/12/12 11:18:18;;;;;;;2.63;2.50;;;19.30;35.50;;;;;;4976000;28;20446;-60
2022/12/12 11:21:07;;;;;;;2.93;2.73;;;19.30;35.60;;;;;;4980832;28;20792;-60
2022/12/12 11:23:37;;;;;;;2.70;2.50;;;19.30;35.50;;;;;;4981133;28;20557;-60
2022/12/12 11:26:10;;;;;;;3.03;2.80;;;19.30;35.50;;;;;;4981151;28;21043;-60
2022/12/12 11:28:37;;;;;;;2.77;2.57;;;19.30;35.50;;;;;;4980719;28;20552;-61
2022/12/12 11:31:10;;;;;;;3.00;2.80;;;19.30;35.50;;;;;;4983617;28;21021;-61
2022/12/12 11:33:49;;;;;;;2.80;2.60;;;19.30;35.50;;;;;;4977308;28;20546;-60
2022/12/12 11:36:27;;;;;;;3.50;3.30;;;19.30;35.50;;;;;;4978072;28;20440;-60
2022/12/12 11:38:58;;;;;;;2.80;2.70;;;19.30;35.50;;;;;;4997396;28;20447;-60
2022/12/12 11:41:23;;;;;;;2.70;2.60;;;19.30;35.50;;;;;;4981427;28;20936;-60
2022/12/12 11:43:49;;;;;;;2.40;2.30;;;19.30;35.50;;;;;;4975633;28;21758;-60
2022/12/12 11:46:17;;;;;;;2.97;2.77;;;19.30;35.40;;;;;;4981303;28;21043;-60
2022/12/12 11:48:56;;;;;;;2.37;2.23;;;19.30;35.40;;;;;;4983467;28;20219;-60
2022/12/12 11:51:39;;;;;;;2.73;2.57;;;19.30;35.40;;;;;;4983860;28;20427;-60
2022/12/12 11:54:24;;;;;;;2.60;2.50;;;19.30;35.40;;;;;;4997047;28;20448;-60
2022/12/12 11:56:56;;;;;;;2.10;2.00;;;19.30;35.40;;;;;;5000111;28;20428;-61
2022/12/12 11:59:47;;;;;;;2.97;2.77;;;19.30;35.40;;;;;;4999161;28;20563;-61
2022/12/12 12:02:40;;;;;;;2.40;2.20;;;19.30;35.40;;;;;;4989018;28;20469;-60
2022/12/12 12:05:38;;;;;;;3.00;2.80;;;19.30;35.40;;;;;;4978766;28;20433;-60
2022/12/12 12:08:18;;;;;;;2.30;2.20;;;19.30;35.40;;;;;;4979042;28;20931;-60
2022/12/12 12:10:59;;;;;;;2.73;2.60;;;19.30;35.50;;;;;;4981995;28;20423;-60
2022/12/12 12:13:33;;;;;;;2.60;2.40;;;19.30;35.40;;;;;;4983513;28;20488;-61
2022/12/12 12:16:26;;;;;;;2.97;2.77;;;19.30;35.40;;;;;;4976096;28;20451;-63
2022/12/12 12:18:57;;;;;;;2.90;2.70;;;19.30;35.40;;;;;;4991117;28;20422;-60
2022/12/12 12:21:38;;;;;;;2.77;2.57;;;19.30;35.40;;;;;;4997830;28;20809;-60
2022/12/12 12:24:09;;;;;;;3.00;2.80;;;19.30;35.40;;;;;;4984076;28;20483;-61
2022/12/12 12:26:43;;;;;;;2.30;2.13;;;19.30;35.40;;;;;;4973992;28;20433;-60
2022/12/12 12:29:40;;;;;;;2.40;2.30;;;19.30;36.20;;;;;;4979111;28;20505;-60
2022/12/12 12:32:11;;;;;;;2.40;2.20;;;19.30;35.40;;;;;;4975984;28;20481;-60
2022/12/12 12:34:56;;;;;;;2.67;2.57;;;19.30;35.50;;;;;;4978219;28;20451;-61
2022/12/12 12:37:57;;;;;;;2.17;2.07;;;19.30;35.40;;;;;;4982631;28;20433;-61
2022/12/12 12:40:48;;;;;;;2.80;2.60;;;19.30;35.40;;;;;;4999300;28;20419;-59
2022/12/12 12:43:33;;;;;;;2.20;2.10;;;19.30;35.40;;;;;;4997792;28;20481;-61
2022/12/12 12:46:10;;;;;;;2.30;2.10;;;19.30;35.40;;;;;;4989910;28;20587;-61
2022/12/12 12:48:40;;;;;;;2.30;2.20;;;19.30;35.40;;;;;;4978451;28;20561;-61
2022/12/12 12:51:33;;;;;;;2.50;2.40;;;19.30;35.50;;;;;;4978891;28;20956;-61
2022/12/12 12:54:12;;;;;;;2.87;2.67;;;19.30;35.50;;;;;;4980495;28;20450;-60
2022/12/12 12:56:48;;;;;;;2.83;2.63;;;19.30;35.50;;;;;;4977617;28;20501;-60
2022/12/12 12:59:19;;;;;;;2.43;2.33;;;19.30;35.50;;;;;;4988498;28;20524;-60
2022/12/12 13:01:49;;;;;;;2.50;2.40;;;19.30;35.50;;;;;;4976312;28;20436;-61
2022/12/12 13:04:47;;;;;;;2.13;2.03;;;19.30;36.20;;;;;;4986159;28;20423;-61
2022/12/12 13:07:25;;;;;;;2.43;2.23;;;19.30;35.50;;;;;;4988127;28;20432;-60
2022/12/12 13:10:17;;;;;;;2.40;2.20;;;19.30;35.50;;;;;;4986025;28;20527;-61
2022/12/12 13:12:55;;;;;;;2.17;1.97;;;19.30;35.40;;;;;;4976882;28;20479;-61
2022/12/12 13:15:43;;;;;;;2.30;2.20;;;19.30;35.50;;;;;;4980709;28;20908;-61
2022/12/12 13:18:14;;;;;;;2.37;2.27;;;19.30;35.50;;;;;;4972739;28;20543;-60
2022/12/12 13:20:48;;;;;;;2.43;2.23;;;19.30;35.50;;;;;;4995574;28;20430;-60
2022/12/12 13:23:38;;;;;;;2.60;2.40;;;19.30;35.50;;;;;;5003363;28;20473;-60